sensor_id;sensor_type;location;lat;lon;timestamp;P1;durP1;ratioP1;P2;durP2;ratioP2
68938;SDS011;59064;45.294;11.816;2024-02-15T00:02:22;42.90;;;29.20;;
68938;SDS011;59064;45.294;11.816;2024-02-15T00:04:48;41.80;;;28.90;;
68938;SDS011;59064;45.294;11.816;2024-02-15T00:07:14;41.50;;;27.80;;
68938;SDS011;59064;45.294;11.816;2024-02-15T00:09:39;50.10;;;31.80;;
68938;SDS011;59064;45.294;11.816;2024-02-15T00:12:05;42.00;;;29.00;;
68938;SDS011;59064;45.294;11.816;2024-02-15T00:14:31;43.40;;;30.00;;
68938;SDS011;59064;45.294;11.816;2024-02-15T00:16:57;44.20;;;29.80;;
68938;SDS011;59064;45.294;11.816;2024-02-15T00:19:23;42.20;;;28.50;;
68938;SDS011;59064;45.294;11.816;2024-02-15T00:21:49;42.50;;;29.00;;
68938;SDS011;59064;45.294;11.816;2024-02-15T00:24:15;42.50;;;30.50;;
68938;SDS011;59064;45.294;11.816;2024-02-15T00:26:40;44.90;;;31.50;;
68938;SDS011;59064;45.294;11.816;2024-02-15T00:29:08;41.10;;;27.90;;
68938;SDS011;59064;45.294;11.816;2024-02-15T00:31:35;40.70;;;27.90;;
68938;SDS011;59064;45.294;11.816;2024-02-15T00:34:01;44.80;;;30.20;;
68938;SDS011;59064;45.294;11.816;2024-02-15T00:36:30;39.80;;;28.60;;
68938;SDS011;59064;45.294;11.816;2024-02-15T00:38:55;41.80;;;26.40;;
68938;SDS011;59064;45.294;11.816;2024-02-15T00:41:21;44.90;;;31.30;;
68938;SDS011;59064;45.294;11.816;2024-02-15T00:43:47;43.80;;;30.10;;
68938;SDS011;59064;45.294;11.816;2024-02-15T00:46:13;44.90;;;30.20;;
68938;SDS011;59064;45.294;11.816;2024-02-15T00:48:41;42.90;;;27.40;;
68938;SDS011;59064;45.294;11.816;2024-02-15T00:51:07;42.80;;;29.00;;
68938;SDS011;59064;45.294;11.816;2024-02-15T00:53:33;42.50;;;30.00;;
68938;SDS011;59064;45.294;11.816;2024-02-15T00:55:59;42.00;;;27.80;;
68938;SDS011;59064;45.294;11.816;2024-02-15T00:58:24;41.70;;;28.10;;
68938;SDS011;59064;45.294;11.816;2024-02-15T01:00:53;38.10;;;24.20;;
68938;SDS011;59064;45.294;11.816;2024-02-15T01:03:19;48.20;;;30.30;;
68938;SDS011;59064;45.294;11.816;2024-02-15T01:05:45;49.40;;;32.40;;
68938;SDS011;59064;45.294;11.816;2024-02-15T01:08:11;45.60;;;29.80;;
68938;SDS011;59064;45.294;11.816;2024-02-15T01:10:37;43.30;;;29.70;;
68938;SDS011;59064;45.294;11.816;2024-02-15T01:13:03;42.30;;;29.90;;
68938;SDS011;59064;45.294;11.816;2024-02-15T01:15:29;40.40;;;27.80;;
68938;SDS011;59064;45.294;11.816;2024-02-15T01:17:54;45.00;;;29.90;;
68938;SDS011;59064;45.294;11.816;2024-02-15T01:20:20;48.90;;;31.90;;
68938;SDS011;59064;45.294;11.816;2024-02-15T01:22:46;41.10;;;29.30;;
68938;SDS011;59064;45.294;11.816;2024-02-15T01:25:12;43.00;;;29.10;;
68938;SDS011;59064;45.294;11.816;2024-02-15T01:27:40;47.10;;;31.40;;
68938;SDS011;59064;45.294;11.816;2024-02-15T01:30:06;47.70;;;33.10;;
68938;SDS011;59064;45.294;11.816;2024-02-15T01:32:33;48.60;;;33.40;;
68938;SDS011;59064;45.294;11.816;2024-02-15T01:34:59;46.80;;;32.50;;
68938;SDS011;59064;45.294;11.816;2024-02-15T01:37:25;44.90;;;31.00;;
68938;SDS011;59064;45.294;11.816;2024-02-15T01:39:51;41.10;;;28.60;;
68938;SDS011;59064;45.294;11.816;2024-02-15T01:42:16;38.60;;;26.90;;
68938;SDS011;59064;45.294;11.816;2024-02-15T01:44:42;43.30;;;29.20;;
68938;SDS011;59064;45.294;11.816;2024-02-15T01:47:10;36.30;;;26.50;;
68938;SDS011;59064;45.294;11.816;2024-02-15T01:49:36;40.80;;;28.30;;
68938;SDS011;59064;45.294;11.816;2024-02-15T01:52:02;41.90;;;29.60;;
68938;SDS011;59064;45.294;11.816;2024-02-15T01:54:34;41.30;;;28.30;;
68938;SDS011;59064;45.294;11.816;2024-02-15T01:57:01;45.80;;;29.60;;
68938;SDS011;59064;45.294;11.816;2024-02-15T01:59:28;39.80;;;27.60;;
68938;SDS011;59064;45.294;11.816;2024-02-15T02:01:55;38.30;;;26.30;;
68938;SDS011;59064;45.294;11.816;2024-02-15T02:04:21;35.60;;;24.80;;
68938;SDS011;59064;45.294;11.816;2024-02-15T02:06:47;39.00;;;26.80;;
68938;SDS011;59064;45.294;11.816;2024-02-15T02:09:13;45.70;;;31.40;;
68938;SDS011;59064;45.294;11.816;2024-02-15T02:11:44;42.30;;;28.90;;
68938;SDS011;59064;45.294;11.816;2024-02-15T02:14:11;43.60;;;30.00;;
68938;SDS011;59064;45.294;11.816;2024-02-15T02:16:37;41.10;;;28.10;;
68938;SDS011;59064;45.294;11.816;2024-02-15T02:19:04;38.00;;;27.00;;
68938;SDS011;59064;45.294;11.816;2024-02-15T02:21:37;34.50;;;24.50;;
68938;SDS011;59064;45.294;11.816;2024-02-15T02:24:11;40.40;;;27.90;;
68938;SDS011;59064;45.294;11.816;2024-02-15T02:26:38;40.10;;;28.20;;
68938;SDS011;59064;45.294;11.816;2024-02-15T02:29:05;38.40;;;26.90;;
68938;SDS011;59064;45.294;11.816;2024-02-15T02:31:34;41.20;;;28.90;;
68938;SDS011;59064;45.294;11.816;2024-02-15T02:34:00;39.70;;;27.80;;
68938;SDS011;59064;45.294;11.816;2024-02-15T02:36:26;41.20;;;29.50;;
68938;SDS011;59064;45.294;11.816;2024-02-15T02:38:52;41.40;;;29.30;;
68938;SDS011;59064;45.294;11.816;2024-02-15T02:41:18;39.90;;;27.30;;
68938;SDS011;59064;45.294;11.816;2024-02-15T02:43:44;34.90;;;24.80;;
68938;SDS011;59064;45.294;11.816;2024-02-15T02:46:11;37.10;;;25.40;;
68938;SDS011;59064;45.294;11.816;2024-02-15T02:48:38;42.30;;;28.20;;
68938;SDS011;59064;45.294;11.816;2024-02-15T02:51:05;38.30;;;26.40;;
68938;SDS011;59064;45.294;11.816;2024-02-15T02:53:32;36.40;;;25.60;;
68938;SDS011;59064;45.294;11.816;2024-02-15T02:55:58;37.30;;;26.90;;
68938;SDS011;59064;45.294;11.816;2024-02-15T02:58:24;41.00;;;29.10;;
68938;SDS011;59064;45.294;11.816;2024-02-15T03:00:50;42.20;;;28.50;;
68938;SDS011;59064;45.294;11.816;2024-02-15T03:03:17;41.30;;;28.70;;
68938;SDS011;59064;45.294;11.816;2024-02-15T03:05:44;43.90;;;30.50;;
68938;SDS011;59064;45.294;11.816;2024-02-15T03:08:13;45.60;;;30.10;;
68938;SDS011;59064;45.294;11.816;2024-02-15T03:10:40;43.70;;;29.40;;
68938;SDS011;59064;45.294;11.816;2024-02-15T03:13:06;44.50;;;29.60;;
68938;SDS011;59064;45.294;11.816;2024-02-15T03:15:37;39.90;;;28.20;;
68938;SDS011;59064;45.294;11.816;2024-02-15T03:18:03;42.90;;;29.30;;
68938;SDS011;59064;45.294;11.816;2024-02-15T03:20:38;40.60;;;27.10;;
68938;SDS011;59064;45.294;11.816;2024-02-15T03:23:04;40.70;;;28.10;;
68938;SDS011;59064;45.294;11.816;2024-02-15T03:25:29;40.00;;;27.80;;
68938;SDS011;59064;45.294;11.816;2024-02-15T03:27:58;40.50;;;27.60;;
68938;SDS011;59064;45.294;11.816;2024-02-15T03:30:29;44.40;;;30.00;;
68938;SDS011;59064;45.294;11.816;2024-02-15T03:32:57;50.20;;;32.40;;
68938;SDS011;59064;45.294;11.816;2024-02-15T03:35:27;43.00;;;29.60;;
68938;SDS011;59064;45.294;11.816;2024-02-15T03:37:56;43.90;;;29.60;;
68938;SDS011;59064;45.294;11.816;2024-02-15T03:40:22;47.10;;;32.10;;
68938;SDS011;59064;45.294;11.816;2024-02-15T03:42:51;49.70;;;32.70;;
68938;SDS011;59064;45.294;11.816;2024-02-15T03:45:18;50.60;;;34.30;;
68938;SDS011;59064;45.294;11.816;2024-02-15T03:47:44;37.80;;;27.10;;
68938;SDS011;59064;45.294;11.816;2024-02-15T03:50:10;40.00;;;28.00;;
68938;SDS011;59064;45.294;11.816;2024-02-15T03:52:37;47.50;;;31.00;;
68938;SDS011;59064;45.294;11.816;2024-02-15T03:55:06;54.30;;;35.00;;
68938;SDS011;59064;45.294;11.816;2024-02-15T03:57:32;50.80;;;33.50;;
68938;SDS011;59064;45.294;11.816;2024-02-15T03:59:59;44.30;;;28.20;;
68938;SDS011;59064;45.294;11.816;2024-02-15T04:02:25;50.00;;;31.40;;
68938;SDS011;59064;45.294;11.816;2024-02-15T04:04:56;44.20;;;30.50;;
68938;SDS011;59064;45.294;11.816;2024-02-15T04:07:22;42.00;;;27.00;;
68938;SDS011;59064;45.294;11.816;2024-02-15T04:09:50;40.00;;;24.60;;
68938;SDS011;59064;45.294;11.816;2024-02-15T04:12:16;43.60;;;27.20;;
68938;SDS011;59064;45.294;11.816;2024-02-15T04:14:43;53.30;;;31.30;;
68938;SDS011;59064;45.294;11.816;2024-02-15T04:17:13;51.40;;;31.20;;
68938;SDS011;59064;45.294;11.816;2024-02-15T04:19:43;53.30;;;33.30;;
68938;SDS011;59064;45.294;11.816;2024-02-15T04:22:11;53.70;;;31.90;;
68938;SDS011;59064;45.294;11.816;2024-02-15T04:24:38;49.10;;;32.90;;
68938;SDS011;59064;45.294;11.816;2024-02-15T04:27:06;47.80;;;32.80;;
68938;SDS011;59064;45.294;11.816;2024-02-15T04:29:45;50.50;;;31.90;;
68938;SDS011;59064;45.294;11.816;2024-02-15T04:32:12;45.90;;;31.50;;
68938;SDS011;59064;45.294;11.816;2024-02-15T04:34:41;46.30;;;30.70;;
68938;SDS011;59064;45.294;11.816;2024-02-15T04:37:07;46.60;;;31.90;;
68938;SDS011;59064;45.294;11.816;2024-02-15T04:39:36;46.70;;;29.50;;
68938;SDS011;59064;45.294;11.816;2024-02-15T04:42:02;44.40;;;29.60;;
68938;SDS011;59064;45.294;11.816;2024-02-15T04:44:31;41.80;;;27.80;;
68938;SDS011;59064;45.294;11.816;2024-02-15T04:47:00;43.40;;;27.80;;
68938;SDS011;59064;45.294;11.816;2024-02-15T04:49:29;39.70;;;27.00;;
68938;SDS011;59064;45.294;11.816;2024-02-15T04:51:55;36.80;;;24.60;;
68938;SDS011;59064;45.294;11.816;2024-02-15T04:54:22;37.30;;;25.30;;
68938;SDS011;59064;45.294;11.816;2024-02-15T04:56:48;37.90;;;26.50;;
68938;SDS011;59064;45.294;11.816;2024-02-15T04:59:15;37.30;;;25.30;;
68938;SDS011;59064;45.294;11.816;2024-02-15T05:01:42;44.70;;;30.00;;
68938;SDS011;59064;45.294;11.816;2024-02-15T05:04:11;34.50;;;23.20;;
68938;SDS011;59064;45.294;11.816;2024-02-15T05:06:39;42.00;;;26.30;;
68938;SDS011;59064;45.294;11.816;2024-02-15T05:09:05;39.20;;;26.70;;
68938;SDS011;59064;45.294;11.816;2024-02-15T05:11:33;37.50;;;24.80;;
68938;SDS011;59064;45.294;11.816;2024-02-15T05:14:05;38.00;;;24.70;;
68938;SDS011;59064;45.294;11.816;2024-02-15T05:16:34;40.70;;;25.60;;
68938;SDS011;59064;45.294;11.816;2024-02-15T05:19:02;46.20;;;29.60;;
68938;SDS011;59064;45.294;11.816;2024-02-15T05:21:28;76.50;;;39.00;;
68938;SDS011;59064;45.294;11.816;2024-02-15T05:23:53;71.30;;;36.70;;
68938;SDS011;59064;45.294;11.816;2024-02-15T05:26:20;46.10;;;26.60;;
68938;SDS011;59064;45.294;11.816;2024-02-15T05:28:51;37.00;;;25.90;;
68938;SDS011;59064;45.294;11.816;2024-02-15T05:31:19;41.40;;;28.50;;
68938;SDS011;59064;45.294;11.816;2024-02-15T05:33:52;46.80;;;29.80;;
68938;SDS011;59064;45.294;11.816;2024-02-15T05:36:20;47.30;;;30.90;;
68938;SDS011;59064;45.294;11.816;2024-02-15T05:38:48;46.20;;;31.50;;
68938;SDS011;59064;45.294;11.816;2024-02-15T05:41:18;52.00;;;33.60;;
68938;SDS011;59064;45.294;11.816;2024-02-15T05:43:44;46.20;;;30.40;;
68938;SDS011;59064;45.294;11.816;2024-02-15T05:46:11;50.20;;;31.20;;
68938;SDS011;59064;45.294;11.816;2024-02-15T05:48:38;46.30;;;30.50;;
68938;SDS011;59064;45.294;11.816;2024-02-15T05:51:05;42.50;;;27.70;;
68938;SDS011;59064;45.294;11.816;2024-02-15T05:53:35;43.80;;;30.60;;
68938;SDS011;59064;45.294;11.816;2024-02-15T05:56:05;44.00;;;30.10;;
68938;SDS011;59064;45.294;11.816;2024-02-15T05:58:32;33.60;;;23.40;;
68938;SDS011;59064;45.294;11.816;2024-02-15T06:00:58;33.10;;;22.70;;
68938;SDS011;59064;45.294;11.816;2024-02-15T06:03:31;37.20;;;25.60;;
68938;SDS011;59064;45.294;11.816;2024-02-15T06:06:01;43.20;;;29.30;;
68938;SDS011;59064;45.294;11.816;2024-02-15T06:08:31;40.50;;;28.40;;
68938;SDS011;59064;45.294;11.816;2024-02-15T06:10:58;43.00;;;29.10;;
68938;SDS011;59064;45.294;11.816;2024-02-15T06:13:25;40.50;;;28.30;;
68938;SDS011;59064;45.294;11.816;2024-02-15T06:15:52;45.60;;;30.80;;
68938;SDS011;59064;45.294;11.816;2024-02-15T06:18:25;49.70;;;32.50;;
68938;SDS011;59064;45.294;11.816;2024-02-15T06:20:54;45.20;;;29.90;;
68938;SDS011;59064;45.294;11.816;2024-02-15T06:23:24;37.40;;;25.00;;
68938;SDS011;59064;45.294;11.816;2024-02-15T06:25:52;37.30;;;25.10;;
68938;SDS011;59064;45.294;11.816;2024-02-15T06:28:22;41.60;;;26.70;;
68938;SDS011;59064;45.294;11.816;2024-02-15T06:31:11;38.30;;;25.60;;
68938;SDS011;59064;45.294;11.816;2024-02-15T06:33:55;36.00;;;25.20;;
68938;SDS011;59064;45.294;11.816;2024-02-15T06:36:47;39.50;;;26.80;;
68938;SDS011;59064;45.294;11.816;2024-02-15T06:39:31;40.60;;;27.60;;
68938;SDS011;59064;45.294;11.816;2024-02-15T06:42:06;38.20;;;25.80;;
68938;SDS011;59064;45.294;11.816;2024-02-15T06:44:37;39.60;;;28.00;;
68938;SDS011;59064;45.294;11.816;2024-02-15T06:47:05;37.20;;;26.50;;
68938;SDS011;59064;45.294;11.816;2024-02-15T06:49:32;40.10;;;28.00;;
68938;SDS011;59064;45.294;11.816;2024-02-15T06:52:00;40.70;;;28.50;;
68938;SDS011;59064;45.294;11.816;2024-02-15T06:54:28;33.10;;;24.00;;
68938;SDS011;59064;45.294;11.816;2024-02-15T06:56:53;35.40;;;25.60;;
68938;SDS011;59064;45.294;11.816;2024-02-15T06:59:20;38.20;;;26.80;;
68938;SDS011;59064;45.294;11.816;2024-02-15T07:01:49;39.50;;;27.00;;
68938;SDS011;59064;45.294;11.816;2024-02-15T07:04:17;36.60;;;25.60;;
68938;SDS011;59064;45.294;11.816;2024-02-15T07:06:44;37.00;;;26.70;;
68938;SDS011;59064;45.294;11.816;2024-02-15T07:09:13;37.00;;;25.70;;
68938;SDS011;59064;45.294;11.816;2024-02-15T07:11:44;35.30;;;24.10;;
68938;SDS011;59064;45.294;11.816;2024-02-15T07:14:14;35.00;;;23.80;;
68938;SDS011;59064;45.294;11.816;2024-02-15T07:16:44;37.10;;;24.50;;
68938;SDS011;59064;45.294;11.816;2024-02-15T07:19:13;31.90;;;22.60;;
68938;SDS011;59064;45.294;11.816;2024-02-15T07:21:40;31.90;;;21.00;;
68938;SDS011;59064;45.294;11.816;2024-02-15T07:24:06;37.00;;;25.60;;
68938;SDS011;59064;45.294;11.816;2024-02-15T07:26:33;39.70;;;26.70;;
68938;SDS011;59064;45.294;11.816;2024-02-15T07:29:00;35.70;;;25.70;;
68938;SDS011;59064;45.294;11.816;2024-02-15T07:31:29;35.00;;;25.40;;
68938;SDS011;59064;45.294;11.816;2024-02-15T07:33:55;38.50;;;26.70;;
68938;SDS011;59064;45.294;11.816;2024-02-15T07:36:21;40.10;;;27.70;;
68938;SDS011;59064;45.294;11.816;2024-02-15T07:38:48;37.20;;;25.40;;
68938;SDS011;59064;45.294;11.816;2024-02-15T07:41:18;38.50;;;28.10;;
68938;SDS011;59064;45.294;11.816;2024-02-15T07:43:51;35.70;;;25.90;;
68938;SDS011;59064;45.294;11.816;2024-02-15T07:46:21;37.10;;;26.60;;
68938;SDS011;59064;45.294;11.816;2024-02-15T07:48:47;34.90;;;25.80;;
68938;SDS011;59064;45.294;11.816;2024-02-15T07:51:18;35.70;;;26.10;;
68938;SDS011;59064;45.294;11.816;2024-02-15T07:53:44;38.80;;;28.00;;
68938;SDS011;59064;45.294;11.816;2024-02-15T07:56:10;35.40;;;25.30;;
68938;SDS011;59064;45.294;11.816;2024-02-15T07:58:41;35.20;;;26.50;;
68938;SDS011;59064;45.294;11.816;2024-02-15T08:01:12;33.20;;;26.20;;
68938;SDS011;59064;45.294;11.816;2024-02-15T08:03:38;37.80;;;27.90;;
68938;SDS011;59064;45.294;11.816;2024-02-15T08:06:12;36.10;;;26.10;;
68938;SDS011;59064;45.294;11.816;2024-02-15T08:08:40;38.00;;;29.20;;
68938;SDS011;59064;45.294;11.816;2024-02-15T08:11:16;40.50;;;29.80;;
68938;SDS011;59064;45.294;11.816;2024-02-15T08:13:45;39.70;;;29.90;;
68938;SDS011;59064;45.294;11.816;2024-02-15T08:16:18;39.70;;;28.80;;
68938;SDS011;59064;45.294;11.816;2024-02-15T08:18:48;38.20;;;28.50;;
68938;SDS011;59064;45.294;11.816;2024-02-15T08:21:14;36.70;;;27.90;;
68938;SDS011;59064;45.294;11.816;2024-02-15T08:23:42;39.70;;;28.20;;
68938;SDS011;59064;45.294;11.816;2024-02-15T08:26:08;35.60;;;27.90;;
68938;SDS011;59064;45.294;11.816;2024-02-15T08:28:36;41.30;;;30.50;;
68938;SDS011;59064;45.294;11.816;2024-02-15T08:31:02;40.60;;;28.80;;
68938;SDS011;59064;45.294;11.816;2024-02-15T08:33:29;45.40;;;31.60;;
68938;SDS011;59064;45.294;11.816;2024-02-15T08:35:55;42.00;;;31.00;;
68938;SDS011;59064;45.294;11.816;2024-02-15T08:38:24;38.30;;;28.50;;
68938;SDS011;59064;45.294;11.816;2024-02-15T08:40:50;36.00;;;29.00;;
68938;SDS011;59064;45.294;11.816;2024-02-15T08:43:16;37.80;;;28.60;;
68938;SDS011;59064;45.294;11.816;2024-02-15T08:45:42;36.80;;;28.20;;
68938;SDS011;59064;45.294;11.816;2024-02-15T08:48:08;39.80;;;30.50;;
68938;SDS011;59064;45.294;11.816;2024-02-15T08:50:34;38.50;;;27.90;;
68938;SDS011;59064;45.294;11.816;2024-02-15T08:53:01;38.40;;;30.00;;
68938;SDS011;59064;45.294;11.816;2024-02-15T08:55:31;39.50;;;30.30;;
68938;SDS011;59064;45.294;11.816;2024-02-15T08:57:57;38.50;;;30.00;;
68938;SDS011;59064;45.294;11.816;2024-02-15T09:00:25;38.50;;;29.30;;
68938;SDS011;59064;45.294;11.816;2024-02-15T09:02:52;37.50;;;29.80;;
68938;SDS011;59064;45.294;11.816;2024-02-15T09:05:18;38.40;;;29.30;;
68938;SDS011;59064;45.294;11.816;2024-02-15T09:07:45;38.60;;;31.30;;
68938;SDS011;59064;45.294;11.816;2024-02-15T09:10:15;38.30;;;30.90;;
68938;SDS011;59064;45.294;11.816;2024-02-15T09:12:45;38.20;;;30.70;;
68938;SDS011;59064;45.294;11.816;2024-02-15T09:15:14;37.20;;;29.30;;
68938;SDS011;59064;45.294;11.816;2024-02-15T09:17:40;38.70;;;32.00;;
68938;SDS011;59064;45.294;11.816;2024-02-15T09:20:08;39.80;;;31.00;;
68938;SDS011;59064;45.294;11.816;2024-02-15T09:22:43;39.50;;;30.60;;
68938;SDS011;59064;45.294;11.816;2024-02-15T09:25:13;39.70;;;31.10;;
68938;SDS011;59064;45.294;11.816;2024-02-15T09:27:39;42.30;;;31.40;;
68938;SDS011;59064;45.294;11.816;2024-02-15T09:30:05;41.50;;;31.70;;
68938;SDS011;59064;45.294;11.816;2024-02-15T09:32:35;43.90;;;33.40;;
68938;SDS011;59064;45.294;11.816;2024-02-15T09:35:02;45.50;;;31.00;;
68938;SDS011;59064;45.294;11.816;2024-02-15T09:37:27;41.30;;;32.10;;
68938;SDS011;59064;45.294;11.816;2024-02-15T09:39:56;42.20;;;33.40;;
68938;SDS011;59064;45.294;11.816;2024-02-15T09:42:24;42.40;;;31.20;;
68938;SDS011;59064;45.294;11.816;2024-02-15T09:44:50;44.90;;;31.70;;
68938;SDS011;59064;45.294;11.816;2024-02-15T09:47:16;40.50;;;33.40;;
68938;SDS011;59064;45.294;11.816;2024-02-15T09:49:43;37.30;;;31.80;;
68938;SDS011;59064;45.294;11.816;2024-02-15T09:52:09;41.40;;;33.10;;
68938;SDS011;59064;45.294;11.816;2024-02-15T09:54:41;41.80;;;33.10;;
68938;SDS011;59064;45.294;11.816;2024-02-15T09:57:08;42.80;;;34.40;;
68938;SDS011;59064;45.294;11.816;2024-02-15T09:59:35;41.40;;;31.30;;
68938;SDS011;59064;45.294;11.816;2024-02-15T10:02:02;40.10;;;31.70;;
68938;SDS011;59064;45.294;11.816;2024-02-15T10:04:28;42.30;;;35.10;;
68938;SDS011;59064;45.294;11.816;2024-02-15T10:06:54;40.30;;;32.50;;
68938;SDS011;59064;45.294;11.816;2024-02-15T10:09:24;43.60;;;33.60;;
68938;SDS011;59064;45.294;11.816;2024-02-15T10:12:00;43.70;;;35.60;;
68938;SDS011;59064;45.294;11.816;2024-02-15T10:14:27;41.60;;;33.40;;
68938;SDS011;59064;45.294;11.816;2024-02-15T10:16:54;40.20;;;32.30;;
68938;SDS011;59064;45.294;11.816;2024-02-15T10:19:21;39.70;;;32.90;;
68938;SDS011;59064;45.294;11.816;2024-02-15T10:21:54;42.40;;;33.70;;
68938;SDS011;59064;45.294;11.816;2024-02-15T10:24:23;40.40;;;32.50;;
68938;SDS011;59064;45.294;11.816;2024-02-15T10:26:49;45.90;;;35.10;;
68938;SDS011;59064;45.294;11.816;2024-02-15T10:29:16;41.10;;;32.60;;
68938;SDS011;59064;45.294;11.816;2024-02-15T10:31:56;39.60;;;32.30;;
68938;SDS011;59064;45.294;11.816;2024-02-15T10:34:26;41.20;;;31.30;;
68938;SDS011;59064;45.294;11.816;2024-02-15T10:37:22;45.00;;;34.50;;
68938;SDS011;59064;45.294;11.816;2024-02-15T10:40:04;46.40;;;36.40;;
68938;SDS011;59064;45.294;11.816;2024-02-15T10:42:36;45.70;;;33.20;;
68938;SDS011;59064;45.294;11.816;2024-02-15T10:45:03;42.20;;;33.60;;
68938;SDS011;59064;45.294;11.816;2024-02-15T10:47:30;47.60;;;33.70;;
68938;SDS011;59064;45.294;11.816;2024-02-15T10:49:57;45.10;;;34.00;;
68938;SDS011;59064;45.294;11.816;2024-02-15T10:52:24;43.10;;;31.80;;
68938;SDS011;59064;45.294;11.816;2024-02-15T10:55:03;40.20;;;32.40;;
68938;SDS011;59064;45.294;11.816;2024-02-15T10:57:33;41.80;;;32.50;;
68938;SDS011;59064;45.294;11.816;2024-02-15T11:00:05;38.30;;;29.10;;
68938;SDS011;59064;45.294;11.816;2024-02-15T11:02:43;39.40;;;31.10;;
68938;SDS011;59064;45.294;11.816;2024-02-15T11:05:15;42.30;;;33.00;;
68938;SDS011;59064;45.294;11.816;2024-02-15T11:07:46;39.80;;;32.10;;
68938;SDS011;59064;45.294;11.816;2024-02-15T11:10:11;42.40;;;33.20;;
68938;SDS011;59064;45.294;11.816;2024-02-15T11:12:42;45.30;;;34.00;;
68938;SDS011;59064;45.294;11.816;2024-02-15T11:15:09;44.50;;;35.20;;
68938;SDS011;59064;45.294;11.816;2024-02-15T11:20:03;46.80;;;34.60;;
68938;SDS011;59064;45.294;11.816;2024-02-15T11:22:34;45.80;;;34.10;;
68938;SDS011;59064;45.294;11.816;2024-02-15T11:25:03;46.80;;;35.70;;
68938;SDS011;59064;45.294;11.816;2024-02-15T11:27:48;48.00;;;35.00;;
68938;SDS011;59064;45.294;11.816;2024-02-15T11:30:15;49.50;;;35.30;;
68938;SDS011;59064;45.294;11.816;2024-02-15T11:32:57;49.00;;;36.40;;
68938;SDS011;59064;45.294;11.816;2024-02-15T11:35:24;52.80;;;37.00;;
68938;SDS011;59064;45.294;11.816;2024-02-15T11:40:19;53.80;;;34.70;;
68938;SDS011;59064;45.294;11.816;2024-02-15T11:42:59;49.50;;;34.40;;
68938;SDS011;59064;45.294;11.816;2024-02-15T11:45:29;52.10;;;35.40;;
68938;SDS011;59064;45.294;11.816;2024-02-15T11:47:59;54.20;;;37.40;;
68938;SDS011;59064;45.294;11.816;2024-02-15T11:50:27;53.80;;;37.00;;
68938;SDS011;59064;45.294;11.816;2024-02-15T11:53:01;61.80;;;40.20;;
68938;SDS011;59064;45.294;11.816;2024-02-15T11:55:34;59.30;;;39.00;;
68938;SDS011;59064;45.294;11.816;2024-02-15T11:58:02;56.60;;;39.70;;
68938;SDS011;59064;45.294;11.816;2024-02-15T12:00:34;60.60;;;42.60;;
68938;SDS011;59064;45.294;11.816;2024-02-15T12:03:24;58.50;;;40.20;;
68938;SDS011;59064;45.294;11.816;2024-02-15T12:06:09;57.10;;;40.00;;
68938;SDS011;59064;45.294;11.816;2024-02-15T12:08:54;63.20;;;43.00;;
68938;SDS011;59064;45.294;11.816;2024-02-15T12:11:39;53.90;;;37.70;;
68938;SDS011;59064;45.294;11.816;2024-02-15T12:14:24;57.30;;;39.70;;
68938;SDS011;59064;45.294;11.816;2024-02-15T12:17:12;59.40;;;39.60;;
68938;SDS011;59064;45.294;11.816;2024-02-15T12:20:00;57.90;;;41.10;;
68938;SDS011;59064;45.294;11.816;2024-02-15T12:22:43;52.40;;;36.60;;
68938;SDS011;59064;45.294;11.816;2024-02-15T12:25:17;53.90;;;38.70;;
68938;SDS011;59064;45.294;11.816;2024-02-15T12:27:46;55.60;;;39.20;;
68938;SDS011;59064;45.294;11.816;2024-02-15T12:30:19;56.00;;;40.10;;
68938;SDS011;59064;45.294;11.816;2024-02-15T12:32:51;53.70;;;40.70;;
68938;SDS011;59064;45.294;11.816;2024-02-15T12:35:19;55.30;;;40.10;;
68938;SDS011;59064;45.294;11.816;2024-02-15T12:40:31;56.50;;;41.60;;
68938;SDS011;59064;45.294;11.816;2024-02-15T12:42:58;58.70;;;42.00;;
68938;SDS011;59064;45.294;11.816;2024-02-15T12:45:25;54.10;;;39.20;;
68938;SDS011;59064;45.294;11.816;2024-02-15T12:47:55;51.70;;;37.90;;
68938;SDS011;59064;45.294;11.816;2024-02-15T12:50:28;54.40;;;40.40;;
68938;SDS011;59064;45.294;11.816;2024-02-15T12:52:54;58.50;;;44.40;;
68938;SDS011;59064;45.294;11.816;2024-02-15T12:55:28;52.70;;;42.00;;
68938;SDS011;59064;45.294;11.816;2024-02-15T12:58:03;55.70;;;43.50;;
68938;SDS011;59064;45.294;11.816;2024-02-15T13:00:34;57.60;;;43.90;;
68938;SDS011;59064;45.294;11.816;2024-02-15T13:03:08;57.00;;;42.90;;
68938;SDS011;59064;45.294;11.816;2024-02-15T13:05:35;59.10;;;43.70;;
68938;SDS011;59064;45.294;11.816;2024-02-15T13:08:03;52.40;;;38.80;;
68938;SDS011;59064;45.294;11.816;2024-02-15T13:10:38;54.90;;;41.10;;
68938;SDS011;59064;45.294;11.816;2024-02-15T13:13:07;51.60;;;40.80;;
68938;SDS011;59064;45.294;11.816;2024-02-15T13:15:34;52.70;;;41.40;;
68938;SDS011;59064;45.294;11.816;2024-02-15T13:18:01;55.50;;;41.40;;
68938;SDS011;59064;45.294;11.816;2024-02-15T13:20:30;52.00;;;39.70;;
68938;SDS011;59064;45.294;11.816;2024-02-15T13:23:04;55.10;;;40.60;;
68938;SDS011;59064;45.294;11.816;2024-02-15T13:25:37;53.60;;;42.00;;
68938;SDS011;59064;45.294;11.816;2024-02-15T13:28:05;53.40;;;42.20;;
68938;SDS011;59064;45.294;11.816;2024-02-15T13:30:32;54.90;;;42.40;;
68938;SDS011;59064;45.294;11.816;2024-02-15T13:32:58;48.70;;;37.60;;
68938;SDS011;59064;45.294;11.816;2024-02-15T13:35:24;52.00;;;40.00;;
68938;SDS011;59064;45.294;11.816;2024-02-15T13:37:50;47.90;;;37.40;;
68938;SDS011;59064;45.294;11.816;2024-02-15T13:40:23;48.60;;;38.50;;
68938;SDS011;59064;45.294;11.816;2024-02-15T13:42:51;44.40;;;35.40;;
68938;SDS011;59064;45.294;11.816;2024-02-15T13:45:20;52.50;;;41.10;;
68938;SDS011;59064;45.294;11.816;2024-02-15T13:47:48;48.10;;;39.00;;
68938;SDS011;59064;45.294;11.816;2024-02-15T13:50:19;47.70;;;39.10;;
68938;SDS011;59064;45.294;11.816;2024-02-15T13:52:45;48.00;;;39.00;;
68938;SDS011;59064;45.294;11.816;2024-02-15T13:55:14;49.40;;;39.40;;
68938;SDS011;59064;45.294;11.816;2024-02-15T13:57:43;43.40;;;34.00;;
68938;SDS011;59064;45.294;11.816;2024-02-15T14:00:13;49.00;;;38.30;;
68938;SDS011;59064;45.294;11.816;2024-02-15T14:02:56;46.00;;;36.70;;
68938;SDS011;59064;45.294;11.816;2024-02-15T14:05:24;46.80;;;35.70;;
68938;SDS011;59064;45.294;11.816;2024-02-15T14:08:03;54.00;;;40.60;;
68938;SDS011;59064;45.294;11.816;2024-02-15T14:10:36;49.90;;;38.70;;
68938;SDS011;59064;45.294;11.816;2024-02-15T14:13:02;50.00;;;39.40;;
68938;SDS011;59064;45.294;11.816;2024-02-15T14:15:37;50.90;;;39.50;;
68938;SDS011;59064;45.294;11.816;2024-02-15T14:18:10;50.30;;;38.20;;
68938;SDS011;59064;45.294;11.816;2024-02-15T14:20:40;48.90;;;37.30;;
68938;SDS011;59064;45.294;11.816;2024-02-15T14:23:08;45.50;;;37.20;;
68938;SDS011;59064;45.294;11.816;2024-02-15T14:25:39;47.60;;;37.30;;
68938;SDS011;59064;45.294;11.816;2024-02-15T14:28:05;49.60;;;39.20;;